sensor_id;sensor_type;location;lat;lon;timestamp;P1;durP1;ratioP1;P2;durP2;ratioP2
71836;SDS011;59686;51.716;7.016;2023-04-15T00:00:53;2.92;;;2.63;;
71836;SDS011;59686;51.716;7.016;2023-04-15T00:03:18;3.25;;;2.80;;
71836;SDS011;59686;51.716;7.016;2023-04-15T00:05:44;3.53;;;2.63;;
71836;SDS011;59686;51.716;7.016;2023-04-15T00:08:10;2.70;;;2.50;;
71836;SDS011;59686;51.716;7.016;2023-04-15T00:10:36;4.47;;;2.90;;
71836;SDS011;59686;51.716;7.016;2023-04-15T00:13:02;2.95;;;2.65;;
71836;SDS011;59686;51.716;7.016;2023-04-15T00:15:28;3.03;;;2.72;;
71836;SDS011;59686;51.716;7.016;2023-04-15T00:17:54;4.35;;;2.92;;
71836;SDS011;59686;51.716;7.016;2023-04-15T00:22:50;3.72;;;2.90;;
71836;SDS011;59686;51.716;7.016;2023-04-15T00:25:16;3.55;;;2.70;;
71836;SDS011;59686;51.716;7.016;2023-04-15T00:27:42;4.75;;;2.90;;
71836;SDS011;59686;51.716;7.016;2023-04-15T00:30:07;4.32;;;2.88;;
71836;SDS011;59686;51.716;7.016;2023-04-15T00:32:33;3.35;;;2.60;;
71836;SDS011;59686;51.716;7.016;2023-04-15T00:34:59;4.82;;;2.50;;
71836;SDS011;59686;51.716;7.016;2023-04-15T00:37:25;4.38;;;2.90;;
71836;SDS011;59686;51.716;7.016;2023-04-15T00:39:50;4.38;;;3.08;;
71836;SDS011;59686;51.716;7.016;2023-04-15T00:42:16;3.78;;;2.78;;
71836;SDS011;59686;51.716;7.016;2023-04-15T00:44:43;4.15;;;2.75;;
71836;SDS011;59686;51.716;7.016;2023-04-15T00:47:08;3.88;;;2.53;;
71836;SDS011;59686;51.716;7.016;2023-04-15T00:49:35;3.75;;;2.70;;
71836;SDS011;59686;51.716;7.016;2023-04-15T00:52:00;3.58;;;2.65;;
71836;SDS011;59686;51.716;7.016;2023-04-15T00:54:26;3.22;;;2.88;;
71836;SDS011;59686;51.716;7.016;2023-04-15T00:56:52;3.08;;;2.80;;
71836;SDS011;59686;51.716;7.016;2023-04-15T00:59:18;5.22;;;2.88;;
71836;SDS011;59686;51.716;7.016;2023-04-15T01:01:45;2.80;;;2.58;;
71836;SDS011;59686;51.716;7.016;2023-04-15T01:04:11;3.17;;;2.80;;
71836;SDS011;59686;51.716;7.016;2023-04-15T01:06:37;4.57;;;2.90;;
71836;SDS011;59686;51.716;7.016;2023-04-15T01:09:03;3.60;;;3.03;;
71836;SDS011;59686;51.716;7.016;2023-04-15T01:11:29;4.38;;;3.13;;
71836;SDS011;59686;51.716;7.016;2023-04-15T01:13:58;3.10;;;2.80;;
71836;SDS011;59686;51.716;7.016;2023-04-15T01:16:24;3.92;;;3.10;;
71836;SDS011;59686;51.716;7.016;2023-04-15T01:18:51;4.30;;;3.03;;
71836;SDS011;59686;51.716;7.016;2023-04-15T01:21:17;3.30;;;2.90;;
71836;SDS011;59686;51.716;7.016;2023-04-15T01:23:44;3.67;;;2.90;;
71836;SDS011;59686;51.716;7.016;2023-04-15T01:26:12;3.63;;;3.00;;
71836;SDS011;59686;51.716;7.016;2023-04-15T01:28:41;3.72;;;3.05;;
71836;SDS011;59686;51.716;7.016;2023-04-15T01:31:08;4.65;;;3.10;;
71836;SDS011;59686;51.716;7.016;2023-04-15T01:33:36;3.78;;;2.88;;
71836;SDS011;59686;51.716;7.016;2023-04-15T01:36:03;3.55;;;3.03;;
71836;SDS011;59686;51.716;7.016;2023-04-15T01:38:30;4.20;;;2.70;;
71836;SDS011;59686;51.716;7.016;2023-04-15T01:40:57;4.10;;;3.10;;
71836;SDS011;59686;51.716;7.016;2023-04-15T01:43:24;3.22;;;2.92;;
71836;SDS011;59686;51.716;7.016;2023-04-15T01:45:50;3.10;;;2.78;;
71836;SDS011;59686;51.716;7.016;2023-04-15T01:48:16;5.30;;;2.83;;
71836;SDS011;59686;51.716;7.016;2023-04-15T01:50:42;4.75;;;3.00;;
71836;SDS011;59686;51.716;7.016;2023-04-15T01:53:07;3.33;;;2.83;;
71836;SDS011;59686;51.716;7.016;2023-04-15T01:55:33;3.75;;;3.20;;
71836;SDS011;59686;51.716;7.016;2023-04-15T01:57:59;4.72;;;2.72;;
71836;SDS011;59686;51.716;7.016;2023-04-15T02:00:25;4.18;;;3.00;;
71836;SDS011;59686;51.716;7.016;2023-04-15T02:02:51;3.45;;;3.00;;
71836;SDS011;59686;51.716;7.016;2023-04-15T02:05:17;4.07;;;3.33;;
71836;SDS011;59686;51.716;7.016;2023-04-15T02:07:42;4.30;;;2.80;;
71836;SDS011;59686;51.716;7.016;2023-04-15T02:10:08;3.30;;;2.65;;
71836;SDS011;59686;51.716;7.016;2023-04-15T02:12:35;3.90;;;2.90;;
71836;SDS011;59686;51.716;7.016;2023-04-15T02:15:01;3.90;;;3.30;;
71836;SDS011;59686;51.716;7.016;2023-04-15T02:17:27;3.53;;;3.03;;
71836;SDS011;59686;51.716;7.016;2023-04-15T02:19:54;5.88;;;3.13;;
71836;SDS011;59686;51.716;7.016;2023-04-15T02:22:20;3.45;;;3.15;;
71836;SDS011;59686;51.716;7.016;2023-04-15T02:24:46;4.00;;;2.95;;
71836;SDS011;59686;51.716;7.016;2023-04-15T02:27:15;3.85;;;3.00;;
71836;SDS011;59686;51.716;7.016;2023-04-15T02:29:44;4.03;;;3.30;;
71836;SDS011;59686;51.716;7.016;2023-04-15T02:32:10;3.38;;;3.08;;
71836;SDS011;59686;51.716;7.016;2023-04-15T02:34:39;4.18;;;3.13;;
71836;SDS011;59686;51.716;7.016;2023-04-15T02:37:07;3.38;;;3.08;;
71836;SDS011;59686;51.716;7.016;2023-04-15T02:39:33;4.82;;;3.28;;
71836;SDS011;59686;51.716;7.016;2023-04-15T02:41:59;3.10;;;2.78;;
71836;SDS011;59686;51.716;7.016;2023-04-15T02:44:25;3.40;;;3.10;;
71836;SDS011;59686;51.716;7.016;2023-04-15T02:46:51;3.45;;;3.08;;
71836;SDS011;59686;51.716;7.016;2023-04-15T02:49:22;4.13;;;3.13;;
71836;SDS011;59686;51.716;7.016;2023-04-15T02:51:48;3.88;;;3.45;;
71836;SDS011;59686;51.716;7.016;2023-04-15T02:54:20;3.38;;;3.08;;
71836;SDS011;59686;51.716;7.016;2023-04-15T02:56:50;3.30;;;2.92;;
71836;SDS011;59686;51.716;7.016;2023-04-15T02:59:19;4.17;;;3.47;;
71836;SDS011;59686;51.716;7.016;2023-04-15T03:01:45;3.77;;;3.43;;
71836;SDS011;59686;51.716;7.016;2023-04-15T03:04:11;3.70;;;3.30;;
71836;SDS011;59686;51.716;7.016;2023-04-15T03:06:37;3.77;;;2.83;;
71836;SDS011;59686;51.716;7.016;2023-04-15T03:09:03;4.28;;;3.60;;
71836;SDS011;59686;51.716;7.016;2023-04-15T03:11:28;3.47;;;2.90;;
71836;SDS011;59686;51.716;7.016;2023-04-15T03:13:58;3.50;;;3.13;;
71836;SDS011;59686;51.716;7.016;2023-04-15T03:16:24;3.40;;;3.10;;
71836;SDS011;59686;51.716;7.016;2023-04-15T03:18:50;5.03;;;3.15;;
71836;SDS011;59686;51.716;7.016;2023-04-15T03:21:16;4.60;;;3.45;;
71836;SDS011;59686;51.716;7.016;2023-04-15T03:23:42;3.72;;;3.42;;
71836;SDS011;59686;51.716;7.016;2023-04-15T03:26:07;3.72;;;3.10;;
71836;SDS011;59686;51.716;7.016;2023-04-15T03:28:33;3.53;;;3.23;;
71836;SDS011;59686;51.716;7.016;2023-04-15T03:31:03;3.30;;;3.00;;
71836;SDS011;59686;51.716;7.016;2023-04-15T03:33:28;3.83;;;3.27;;
71836;SDS011;59686;51.716;7.016;2023-04-15T03:35:54;4.53;;;3.33;;
71836;SDS011;59686;51.716;7.016;2023-04-15T03:38:20;3.35;;;3.03;;
71836;SDS011;59686;51.716;7.016;2023-04-15T03:40:45;5.55;;;4.03;;
71836;SDS011;59686;51.716;7.016;2023-04-15T03:43:11;3.60;;;3.00;;
71836;SDS011;59686;51.716;7.016;2023-04-15T03:45:37;3.70;;;3.30;;
71836;SDS011;59686;51.716;7.016;2023-04-15T03:48:03;3.50;;;3.20;;
71836;SDS011;59686;51.716;7.016;2023-04-15T03:50:29;4.93;;;3.90;;
71836;SDS011;59686;51.716;7.016;2023-04-15T03:52:54;3.88;;;3.10;;
71836;SDS011;59686;51.716;7.016;2023-04-15T03:55:20;3.30;;;3.00;;
71836;SDS011;59686;51.716;7.016;2023-04-15T03:57:46;3.63;;;3.20;;
71836;SDS011;59686;51.716;7.016;2023-04-15T04:00:11;3.90;;;3.10;;
71836;SDS011;59686;51.716;7.016;2023-04-15T04:02:37;3.70;;;3.03;;
71836;SDS011;59686;51.716;7.016;2023-04-15T04:05:03;4.22;;;3.47;;
71836;SDS011;59686;51.716;7.016;2023-04-15T04:07:29;4.07;;;3.67;;
71836;SDS011;59686;51.716;7.016;2023-04-15T04:09:57;3.93;;;3.53;;
71836;SDS011;59686;51.716;7.016;2023-04-15T04:12:26;4.20;;;3.80;;
71836;SDS011;59686;51.716;7.016;2023-04-15T04:14:52;3.60;;;3.30;;
71836;SDS011;59686;51.716;7.016;2023-04-15T04:17:17;5.10;;;3.70;;
71836;SDS011;59686;51.716;7.016;2023-04-15T04:19:43;5.63;;;3.60;;
71836;SDS011;59686;51.716;7.016;2023-04-15T04:22:09;4.00;;;3.60;;
71836;SDS011;59686;51.716;7.016;2023-04-15T04:24:35;4.10;;;3.70;;
71836;SDS011;59686;51.716;7.016;2023-04-15T04:27:00;3.90;;;3.40;;
71836;SDS011;59686;51.716;7.016;2023-04-15T04:29:26;4.03;;;3.70;;
71836;SDS011;59686;51.716;7.016;2023-04-15T04:31:52;3.60;;;3.20;;
71836;SDS011;59686;51.716;7.016;2023-04-15T04:34:17;5.33;;;3.70;;
71836;SDS011;59686;51.716;7.016;2023-04-15T04:36:43;4.00;;;3.50;;
71836;SDS011;59686;51.716;7.016;2023-04-15T04:39:09;6.13;;;3.70;;
71836;SDS011;59686;51.716;7.016;2023-04-15T04:41:34;4.57;;;3.73;;
71836;SDS011;59686;51.716;7.016;2023-04-15T04:44:00;4.33;;;3.67;;
71836;SDS011;59686;51.716;7.016;2023-04-15T04:46:26;4.87;;;3.97;;
71836;SDS011;59686;51.716;7.016;2023-04-15T04:48:52;3.50;;;3.20;;
71836;SDS011;59686;51.716;7.016;2023-04-15T04:51:17;5.07;;;3.70;;
71836;SDS011;59686;51.716;7.016;2023-04-15T04:53:45;4.07;;;3.50;;
71836;SDS011;59686;51.716;7.016;2023-04-15T04:56:10;4.37;;;3.93;;
71836;SDS011;59686;51.716;7.016;2023-04-15T04:58:40;3.40;;;3.10;;
71836;SDS011;59686;51.716;7.016;2023-04-15T05:01:06;4.10;;;3.70;;
71836;SDS011;59686;51.716;7.016;2023-04-15T05:03:33;4.73;;;3.40;;
71836;SDS011;59686;51.716;7.016;2023-04-15T05:05:58;3.90;;;3.50;;
71836;SDS011;59686;51.716;7.016;2023-04-15T05:08:24;4.00;;;3.53;;
71836;SDS011;59686;51.716;7.016;2023-04-15T05:10:50;4.40;;;3.63;;
71836;SDS011;59686;51.716;7.016;2023-04-15T05:13:16;3.80;;;3.27;;
71836;SDS011;59686;51.716;7.016;2023-04-15T05:15:41;5.27;;;3.70;;
71836;SDS011;59686;51.716;7.016;2023-04-15T05:18:07;4.17;;;3.60;;
71836;SDS011;59686;51.716;7.016;2023-04-15T05:20:33;4.93;;;4.07;;
71836;SDS011;59686;51.716;7.016;2023-04-15T05:22:58;4.47;;;3.80;;
71836;SDS011;59686;51.716;7.016;2023-04-15T05:25:24;4.60;;;3.60;;
71836;SDS011;59686;51.716;7.016;2023-04-15T05:27:50;4.60;;;4.20;;
71836;SDS011;59686;51.716;7.016;2023-04-15T05:30:16;4.10;;;3.70;;
71836;SDS011;59686;51.716;7.016;2023-04-15T05:32:41;6.10;;;3.93;;
71836;SDS011;59686;51.716;7.016;2023-04-15T05:35:07;4.33;;;3.40;;
71836;SDS011;59686;51.716;7.016;2023-04-15T05:37:33;4.20;;;3.80;;
71836;SDS011;59686;51.716;7.016;2023-04-15T05:39:58;4.97;;;4.10;;
71836;SDS011;59686;51.716;7.016;2023-04-15T05:42:25;3.80;;;3.50;;
71836;SDS011;59686;51.716;7.016;2023-04-15T05:44:50;5.97;;;4.23;;
71836;SDS011;59686;51.716;7.016;2023-04-15T05:47:16;6.60;;;4.20;;
71836;SDS011;59686;51.716;7.016;2023-04-15T05:49:42;4.57;;;4.17;;
71836;SDS011;59686;51.716;7.016;2023-04-15T05:52:08;4.10;;;3.70;;
71836;SDS011;59686;51.716;7.016;2023-04-15T05:54:34;4.30;;;3.90;;
71836;SDS011;59686;51.716;7.016;2023-04-15T05:57:00;5.17;;;4.67;;
71836;SDS011;59686;51.716;7.016;2023-04-15T05:59:26;6.30;;;4.10;;
71836;SDS011;59686;51.716;7.016;2023-04-15T06:01:52;5.47;;;4.20;;
71836;SDS011;59686;51.716;7.016;2023-04-15T06:04:18;5.33;;;4.20;;
71836;SDS011;59686;51.716;7.016;2023-04-15T06:06:44;5.20;;;4.20;;
71836;SDS011;59686;51.716;7.016;2023-04-15T06:09:10;5.93;;;4.33;;
71836;SDS011;59686;51.716;7.016;2023-04-15T06:11:35;5.00;;;4.27;;
71836;SDS011;59686;51.716;7.016;2023-04-15T06:14:01;5.10;;;4.40;;
71836;SDS011;59686;51.716;7.016;2023-04-15T06:16:27;4.87;;;4.37;;
71836;SDS011;59686;51.716;7.016;2023-04-15T06:18:53;5.70;;;4.27;;
71836;SDS011;59686;51.716;7.016;2023-04-15T06:21:18;5.47;;;4.73;;
71836;SDS011;59686;51.716;7.016;2023-04-15T06:23:44;5.37;;;4.53;;
71836;SDS011;59686;51.716;7.016;2023-04-15T06:26:12;5.67;;;4.50;;
71836;SDS011;59686;51.716;7.016;2023-04-15T06:28:38;6.40;;;4.53;;
71836;SDS011;59686;51.716;7.016;2023-04-15T06:31:03;6.50;;;4.93;;
71836;SDS011;59686;51.716;7.016;2023-04-15T06:33:30;6.47;;;4.77;;
71836;SDS011;59686;51.716;7.016;2023-04-15T06:35:55;5.70;;;4.33;;
71836;SDS011;59686;51.716;7.016;2023-04-15T06:38:21;5.40;;;4.43;;
71836;SDS011;59686;51.716;7.016;2023-04-15T06:40:47;5.33;;;4.60;;
71836;SDS011;59686;51.716;7.016;2023-04-15T06:43:16;6.10;;;4.83;;
71836;SDS011;59686;51.716;7.016;2023-04-15T06:45:41;6.80;;;4.73;;
71836;SDS011;59686;51.716;7.016;2023-04-15T06:48:07;5.47;;;4.97;;
71836;SDS011;59686;51.716;7.016;2023-04-15T06:50:33;6.67;;;5.00;;
71836;SDS011;59686;51.716;7.016;2023-04-15T06:52:59;5.53;;;4.40;;
71836;SDS011;59686;51.716;7.016;2023-04-15T06:55:25;4.87;;;4.40;;
71836;SDS011;59686;51.716;7.016;2023-04-15T06:57:51;6.10;;;5.03;;
71836;SDS011;59686;51.716;7.016;2023-04-15T07:00:17;5.60;;;4.60;;
71836;SDS011;59686;51.716;7.016;2023-04-15T07:02:43;6.27;;;4.77;;
71836;SDS011;59686;51.716;7.016;2023-04-15T07:05:09;5.00;;;4.50;;
71836;SDS011;59686;51.716;7.016;2023-04-15T07:07:37;5.37;;;4.60;;
71836;SDS011;59686;51.716;7.016;2023-04-15T07:10:11;5.53;;;4.70;;
71836;SDS011;59686;51.716;7.016;2023-04-15T07:12:37;6.13;;;5.00;;
71836;SDS011;59686;51.716;7.016;2023-04-15T07:15:03;11.80;;;7.53;;
71836;SDS011;59686;51.716;7.016;2023-04-15T07:17:29;8.37;;;7.17;;
71836;SDS011;59686;51.716;7.016;2023-04-15T07:19:54;10.97;;;8.23;;
71836;SDS011;59686;51.716;7.016;2023-04-15T07:22:20;9.33;;;7.73;;
71836;SDS011;59686;51.716;7.016;2023-04-15T07:24:46;9.13;;;7.87;;
71836;SDS011;59686;51.716;7.016;2023-04-15T07:27:12;9.57;;;7.73;;
71836;SDS011;59686;51.716;7.016;2023-04-15T07:29:37;13.23;;;8.87;;
71836;SDS011;59686;51.716;7.016;2023-04-15T07:32:03;9.40;;;7.47;;
71836;SDS011;59686;51.716;7.016;2023-04-15T07:34:29;9.80;;;8.27;;
71836;SDS011;59686;51.716;7.016;2023-04-15T07:36:56;10.83;;;8.37;;
71836;SDS011;59686;51.716;7.016;2023-04-15T07:39:22;10.23;;;7.63;;
71836;SDS011;59686;51.716;7.016;2023-04-15T07:41:47;10.83;;;7.63;;
71836;SDS011;59686;51.716;7.016;2023-04-15T07:44:13;11.43;;;7.80;;
71836;SDS011;59686;51.716;7.016;2023-04-15T07:46:39;9.53;;;7.53;;
71836;SDS011;59686;51.716;7.016;2023-04-15T07:49:05;9.60;;;6.87;;
71836;SDS011;59686;51.716;7.016;2023-04-15T07:51:31;10.57;;;7.13;;
71836;SDS011;59686;51.716;7.016;2023-04-15T07:53:57;8.97;;;7.50;;
71836;SDS011;59686;51.716;7.016;2023-04-15T07:56:23;8.13;;;6.80;;
71836;SDS011;59686;51.716;7.016;2023-04-15T07:58:48;9.30;;;7.77;;
71836;SDS011;59686;51.716;7.016;2023-04-15T08:01:14;8.37;;;7.07;;
71836;SDS011;59686;51.716;7.016;2023-04-15T08:03:46;7.87;;;6.67;;
71836;SDS011;59686;51.716;7.016;2023-04-15T08:06:13;8.10;;;6.17;;
71836;SDS011;59686;51.716;7.016;2023-04-15T08:08:39;8.50;;;7.07;;
71836;SDS011;59686;51.716;7.016;2023-04-15T08:11:05;9.87;;;6.63;;
71836;SDS011;59686;51.716;7.016;2023-04-15T08:13:31;7.93;;;6.30;;
71836;SDS011;59686;51.716;7.016;2023-04-15T08:16:13;8.07;;;6.33;;
71836;SDS011;59686;51.716;7.016;2023-04-15T08:18:48;7.83;;;6.20;;
71836;SDS011;59686;51.716;7.016;2023-04-15T08:21:15;7.90;;;5.90;;
71836;SDS011;59686;51.716;7.016;2023-04-15T08:23:43;8.67;;;6.17;;
71836;SDS011;59686;51.716;7.016;2023-04-15T08:26:10;8.30;;;6.13;;
71836;SDS011;59686;51.716;7.016;2023-04-15T08:28:37;6.40;;;5.37;;
71836;SDS011;59686;51.716;7.016;2023-04-15T08:31:03;8.17;;;5.90;;
71836;SDS011;59686;51.716;7.016;2023-04-15T08:33:29;9.37;;;5.90;;
71836;SDS011;59686;51.716;7.016;2023-04-15T08:35:55;7.03;;;5.97;;
71836;SDS011;59686;51.716;7.016;2023-04-15T08:38:21;5.87;;;5.27;;
71836;SDS011;59686;51.716;7.016;2023-04-15T08:40:47;6.30;;;4.73;;
71836;SDS011;59686;51.716;7.016;2023-04-15T08:43:21;8.70;;;5.60;;
71836;SDS011;59686;51.716;7.016;2023-04-15T08:45:50;6.00;;;5.27;;
71836;SDS011;59686;51.716;7.016;2023-04-15T08:48:17;5.20;;;4.60;;
71836;SDS011;59686;51.716;7.016;2023-04-15T08:50:43;5.27;;;4.73;;
71836;SDS011;59686;51.716;7.016;2023-04-15T08:53:10;5.40;;;4.73;;
71836;SDS011;59686;51.716;7.016;2023-04-15T08:55:38;5.60;;;4.53;;
71836;SDS011;59686;51.716;7.016;2023-04-15T08:58:11;6.27;;;4.87;;
71836;SDS011;59686;51.716;7.016;2023-04-15T09:00:41;5.10;;;4.50;;
71836;SDS011;59686;51.716;7.016;2023-04-15T09:03:07;5.03;;;4.50;;
71836;SDS011;59686;51.716;7.016;2023-04-15T09:05:36;5.37;;;4.50;;
71836;SDS011;59686;51.716;7.016;2023-04-15T09:08:02;6.20;;;4.30;;
71836;SDS011;59686;51.716;7.016;2023-04-15T09:10:32;4.60;;;4.10;;
71836;SDS011;59686;51.716;7.016;2023-04-15T09:12:58;5.13;;;4.33;;
71836;SDS011;59686;51.716;7.016;2023-04-15T09:15:26;4.40;;;4.00;;
71836;SDS011;59686;51.716;7.016;2023-04-15T09:17:53;5.00;;;4.50;;
71836;SDS011;59686;51.716;7.016;2023-04-15T09:20:20;5.03;;;4.40;;
71836;SDS011;59686;51.716;7.016;2023-04-15T09:22:46;5.47;;;4.57;;
71836;SDS011;59686;51.716;7.016;2023-04-15T09:25:25;20.00;;;6.10;;
71836;SDS011;59686;51.716;7.016;2023-04-15T09:28:01;8.23;;;4.40;;
71836;SDS011;59686;51.716;7.016;2023-04-15T09:30:27;11.93;;;4.80;;
71836;SDS011;59686;51.716;7.016;2023-04-15T09:32:54;6.43;;;4.47;;
71836;SDS011;59686;51.716;7.016;2023-04-15T09:35:26;6.60;;;4.80;;
71836;SDS011;59686;51.716;7.016;2023-04-15T09:37:52;6.60;;;4.67;;
71836;SDS011;59686;51.716;7.016;2023-04-15T09:40:38;8.17;;;5.10;;
71836;SDS011;59686;51.716;7.016;2023-04-15T09:43:06;8.47;;;4.67;;
71836;SDS011;59686;51.716;7.016;2023-04-15T09:45:33;8.57;;;4.53;;
71836;SDS011;59686;51.716;7.016;2023-04-15T09:48:16;8.43;;;4.30;;
71836;SDS011;59686;51.716;7.016;2023-04-15T09:50:45;6.80;;;4.40;;
71836;SDS011;59686;51.716;7.016;2023-04-15T09:53:16;5.17;;;4.13;;
71836;SDS011;59686;51.716;7.016;2023-04-15T09:55:50;7.03;;;4.23;;
71836;SDS011;59686;51.716;7.016;2023-04-15T09:58:25;4.83;;;4.23;;
71836;SDS011;59686;51.716;7.016;2023-04-15T10:00:55;5.37;;;4.57;;
71836;SDS011;59686;51.716;7.016;2023-04-15T10:03:22;6.53;;;4.60;;
71836;SDS011;59686;51.716;7.016;2023-04-15T10:05:50;5.40;;;4.23;;
71836;SDS011;59686;51.716;7.016;2023-04-15T10:08:17;5.80;;;4.03;;
71836;SDS011;59686;51.716;7.016;2023-04-15T10:10:45;4.63;;;4.13;;
71836;SDS011;59686;51.716;7.016;2023-04-15T10:13:20;5.50;;;4.33;;
71836;SDS011;59686;51.716;7.016;2023-04-15T10:15:57;4.47;;;4.03;;
71836;SDS011;59686;51.716;7.016;2023-04-15T10:18:26;6.63;;;4.40;;
71836;SDS011;59686;51.716;7.016;2023-04-15T10:20:53;4.90;;;4.27;;
71836;SDS011;59686;51.716;7.016;2023-04-15T10:23:22;5.57;;;4.83;;
71836;SDS011;59686;51.716;7.016;2023-04-15T10:25:50;6.13;;;4.33;;
71836;SDS011;59686;51.716;7.016;2023-04-15T10:28:20;5.33;;;4.33;;
71836;SDS011;59686;51.716;7.016;2023-04-15T10:30:50;4.73;;;4.33;;
71836;SDS011;59686;51.716;7.016;2023-04-15T10:33:18;8.17;;;4.97;;
71836;SDS011;59686;51.716;7.016;2023-04-15T10:35:47;6.20;;;4.90;;
71836;SDS011;59686;51.716;7.016;2023-04-15T10:41:21;10.47;;;5.20;;
71836;SDS011;59686;51.716;7.016;2023-04-15T10:46:17;5.00;;;4.20;;
71836;SDS011;59686;51.716;7.016;2023-04-15T10:48:51;5.50;;;3.90;;
71836;SDS011;59686;51.716;7.016;2023-04-15T10:51:27;5.97;;;3.87;;
71836;SDS011;59686;51.716;7.016;2023-04-15T10:53:58;4.60;;;4.07;;
71836;SDS011;59686;51.716;7.016;2023-04-15T10:56:24;5.33;;;4.40;;
71836;SDS011;59686;51.716;7.016;2023-04-15T10:58:50;7.27;;;4.37;;
71836;SDS011;59686;51.716;7.016;2023-04-15T11:01:16;5.40;;;4.30;;
71836;SDS011;59686;51.716;7.016;2023-04-15T11:03:44;7.23;;;4.67;;
71836;SDS011;59686;51.716;7.016;2023-04-15T11:06:10;4.93;;;4.43;;
71836;SDS011;59686;51.716;7.016;2023-04-15T11:08:52;5.80;;;4.40;;
71836;SDS011;59686;51.716;7.016;2023-04-15T11:11:20;6.10;;;4.43;;
71836;SDS011;59686;51.716;7.016;2023-04-15T11:13:49;7.77;;;4.30;;
71836;SDS011;59686;51.716;7.016;2023-04-15T11:16:16;8.07;;;4.73;;
71836;SDS011;59686;51.716;7.016;2023-04-15T11:18:42;8.37;;;5.10;;
71836;SDS011;59686;51.716;7.016;2023-04-15T11:21:23;6.60;;;4.63;;
71836;SDS011;59686;51.716;7.016;2023-04-15T11:23:49;9.03;;;4.90;;
71836;SDS011;59686;51.716;7.016;2023-04-15T11:26:15;6.67;;;4.60;;
71836;SDS011;59686;51.716;7.016;2023-04-15T11:28:41;6.47;;;4.30;;
71836;SDS011;59686;51.716;7.016;2023-04-15T11:31:15;9.40;;;4.90;;
71836;SDS011;59686;51.716;7.016;2023-04-15T11:36:11;5.80;;;4.07;;
71836;SDS011;59686;51.716;7.016;2023-04-15T11:38:41;6.37;;;4.13;;
71836;SDS011;59686;51.716;7.016;2023-04-15T11:41:07;5.17;;;4.47;;
71836;SDS011;59686;51.716;7.016;2023-04-15T11:43:32;10.33;;;5.00;;
71836;SDS011;59686;51.716;7.016;2023-04-15T11:46:00;6.60;;;4.63;;
71836;SDS011;59686;51.716;7.016;2023-04-15T11:50:55;5.53;;;4.40;;
71836;SDS011;59686;51.716;7.016;2023-04-15T11:53:23;7.20;;;4.47;;
71836;SDS011;59686;51.716;7.016;2023-04-15T11:55:59;4.80;;;4.13;;
71836;SDS011;59686;51.716;7.016;2023-04-15T11:58:25;5.50;;;4.23;;
71836;SDS011;59686;51.716;7.016;2023-04-15T12:00:58;5.40;;;4.03;;
71836;SDS011;59686;51.716;7.016;2023-04-15T12:11:14;4.43;;;4.00;;
71836;SDS011;59686;51.716;7.016;2023-04-15T12:13:47;5.10;;;3.90;;
71836;SDS011;59686;51.716;7.016;2023-04-15T12:16:17;5.37;;;3.53;;
71836;SDS011;59686;51.716;7.016;2023-04-15T12:18:49;4.17;;;3.77;;
71836;SDS011;59686;51.716;7.016;2023-04-15T12:21:27;4.37;;;3.87;;
71836;SDS011;59686;51.716;7.016;2023-04-15T12:24:00;4.90;;;3.53;;
71836;SDS011;59686;51.716;7.016;2023-04-15T12:26:34;6.37;;;3.50;;
71836;SDS011;59686;51.716;7.016;2023-04-15T12:29:06;3.87;;;3.30;;
71836;SDS011;59686;51.716;7.016;2023-04-15T12:31:33;4.10;;;3.20;;
71836;SDS011;59686;51.716;7.016;2023-04-15T12:34:00;4.43;;;3.93;;
71836;SDS011;59686;51.716;7.016;2023-04-15T12:36:41;4.00;;;3.60;;
71836;SDS011;59686;51.716;7.016;2023-04-15T12:39:07;4.00;;;3.37;;
71836;SDS011;59686;51.716;7.016;2023-04-15T12:41:33;3.90;;;3.50;;
71836;SDS011;59686;51.716;7.016;2023-04-15T12:43:59;4.37;;;3.33;;
71836;SDS011;59686;51.716;7.016;2023-04-15T12:46:25;3.53;;;2.93;;
71836;SDS011;59686;51.716;7.016;2023-04-15T12:48:51;3.83;;;2.87;;
71836;SDS011;59686;51.716;7.016;2023-04-15T12:51:18;3.40;;;3.10;;
71836;SDS011;59686;51.716;7.016;2023-04-15T12:53:49;4.07;;;3.67;;
71836;SDS011;59686;51.716;7.016;2023-04-15T12:56:15;4.93;;;3.60;;
71836;SDS011;59686;51.716;7.016;2023-04-15T12:58:41;4.00;;;3.27;;
71836;SDS011;59686;51.716;7.016;2023-04-15T13:01:12;4.33;;;3.17;;
71836;SDS011;59686;51.716;7.016;2023-04-15T13:03:38;3.50;;;3.20;;
71836;SDS011;59686;51.716;7.016;2023-04-15T13:06:03;3.90;;;3.00;;
71836;SDS011;59686;51.716;7.016;2023-04-15T13:08:30;4.27;;;3.13;;
71836;SDS011;59686;51.716;7.016;2023-04-15T13:10:57;3.93;;;3.37;;
71836;SDS011;59686;51.716;7.016;2023-04-15T13:13:22;3.53;;;3.03;;
71836;SDS011;59686;51.716;7.016;2023-04-15T13:18:17;5.67;;;3.53;;
71836;SDS011;59686;51.716;7.016;2023-04-15T13:20:42;5.70;;;3.80;;
71836;SDS011;59686;51.716;7.016;2023-04-15T13:23:08;6.90;;;4.50;;
71836;SDS011;59686;51.716;7.016;2023-04-15T13:25:34;4.73;;;3.73;;
71836;SDS011;59686;51.716;7.016;2023-04-15T13:28:00;5.50;;;3.50;;
71836;SDS011;59686;51.716;7.016;2023-04-15T13:30:26;4.37;;;3.27;;
71836;SDS011;59686;51.716;7.016;2023-04-15T13:32:52;3.53;;;3.20;;
71836;SDS011;59686;51.716;7.016;2023-04-15T13:35:18;5.53;;;3.53;;
71836;SDS011;59686;51.716;7.016;2023-04-15T13:37:46;4.77;;;3.27;;
71836;SDS011;59686;51.716;7.016;2023-04-15T13:40:12;4.10;;;3.70;;
71836;SDS011;59686;51.716;7.016;2023-04-15T13:42:37;3.77;;;3.17;;
71836;SDS011;59686;51.716;7.016;2023-04-15T13:45:03;4.40;;;3.37;;
71836;SDS011;59686;51.716;7.016;2023-04-15T13:47:30;4.23;;;3.03;;
71836;SDS011;59686;51.716;7.016;2023-04-15T13:49:56;4.30;;;3.20;;
71836;SDS011;59686;51.716;7.016;2023-04-15T13:52:22;5.07;;;2.90;;
71836;SDS011;59686;51.716;7.016;2023-04-15T13:54:48;3.07;;;2.77;;
71836;SDS011;59686;51.716;7.016;2023-04-15T13:57:13;5.17;;;3.43;;
71836;SDS011;59686;51.716;7.016;2023-04-15T13:59:39;4.17;;;3.50;;
71836;SDS011;59686;51.716;7.016;2023-04-15T14:02:05;4.90;;;3.47;;
71836;SDS011;59686;51.716;7.016;2023-04-15T14:04:31;7.57;;;3.40;;
71836;SDS011;59686;51.716;7.016;2023-04-15T14:06:59;5.40;;;3.17;;
71836;SDS011;59686;51.716;7.016;2023-04-15T14:09:25;5.23;;;3.00;;
71836;SDS011;59686;51.716;7.016;2023-04-15T14:11:51;3.90;;;2.90;;
71836;SDS011;59686;51.716;7.016;2023-04-15T14:14:17;3.60;;;2.80;;
71836;SDS011;59686;51.716;7.016;2023-04-15T14:16:42;4.67;;;2.80;;
71836;SDS011;59686;51.716;7.016;2023-04-15T14:19:08;6.43;;;3.13;;
71836;SDS011;59686;51.716;7.016;2023-04-15T14:21:34;4.00;;;2.60;;
71836;SDS011;59686;51.716;7.016;2023-04-15T14:23:59;4.63;;;2.80;;
71836;SDS011;59686;51.716;7.016;2023-04-15T14:26:25;5.97;;;2.77;;
71836;SDS011;59686;51.716;7.016;2023-04-15T14:28:52;3.37;;;2.57;;
71836;SDS011;59686;51.716;7.016;2023-04-15T14:31:18;2.67;;;2.47;;
71836;SDS011;59686;51.716;7.016;2023-04-15T14:33:44;3.87;;;2.90;;
71836;SDS011;59686;51.716;7.016;2023-04-15T14:36:10;3.20;;;2.80;;
71836;SDS011;59686;51.716;7.016;2023-04-15T14:38:36;4.13;;;2.93;;
71836;SDS011;59686;51.716;7.016;2023-04-15T14:41:05;4.23;;;2.53;;
71836;SDS011;59686;51.716;7.016;2023-04-15T14:43:32;6.07;;;2.83;;
71836;SDS011;59686;51.716;7.016;2023-04-15T14:45:58;4.17;;;2.70;;
71836;SDS011;59686;51.716;7.016;2023-04-15T14:48:24;3.10;;;2.70;;
71836;SDS011;59686;51.716;7.016;2023-04-15T14:50:50;3.30;;;3.00;;
71836;SDS011;59686;51.716;7.016;2023-04-15T14:53:16;5.57;;;3.87;;
71836;SDS011;59686;51.716;7.016;2023-04-15T14:55:41;5.07;;;3.80;;
71836;SDS011;59686;51.716;7.016;2023-04-15T14:58:10;4.73;;;3.50;;
71836;SDS011;59686;51.716;7.016;2023-04-15T15:00:39;4.43;;;2.77;;
71836;SDS011;59686;51.716;7.016;2023-04-15T15:03:12;3.97;;;3.07;;
71836;SDS011;59686;51.716;7.016;2023-04-15T15:05:39;4.27;;;2.80;;
71836;SDS011;59686;51.716;7.016;2023-04-15T15:08:09;3.93;;;2.83;;
71836;SDS011;59686;51.716;7.016;2023-04-15T15:10:35;3.57;;;2.70;;